Westville, Connecticut
Current Conditions -  °F | °C
As of 3:53 AM on Thursday 23 Oct 2014 (Local Time) from KHVN Reporting Station
Overcast Overcast  
Wind Chill: 52°   Ceiling: 10000
Heat Index: 52°   Visibility: 10mi
Dew Point: 46°   Wind: 24mph
Humidity: 80%   Direction: 360°N
Pressure: 29.64"   Gusts: 33mph
Location:  41.3258°N, 72.9705°W
Report Text: KHVN 230753Z AUTO 36021G29KT 10SM SCT018 OVC100 11/08 A2964 RMK AO2 PK WND 02034/0733 RAE0658 SLP037 P0000 T01110078
Loading
Personal Weather Stations






























Interactive Weather Map New forecast layout! Learn more

10-Day Weather Forecast

Advertisements
Track Severe Weather on mobile